PKWA TAF

82.4 °F / 28.0 °C
ENE at 15 MPH
89%
79.0°F / 26.1 °C
29.83" (1010 mb)
5 mile(s)
partly cloudy
2018.04.26 0000 UTC

PKWA TAF

2018/04/25 18:48
TAF PKWA 251742Z 2518/2618 07015KT P6SM VCSH SCT016 SCT035 BKN060
TEMPO 2518/2522 2SM +SHRA BKN016 BKN025 OVC050